Sunday, July 22, 2018, 1:47 AM CDT
Back to Local

KHYS, Hays, Hays Regional Airport

Location: Hays, KS, United States Lat: 38.85
Local Time: 1:47 AM CDT ( 6:47 GMT) Lon: -99.267
Time Zone: US/Central Elev: 1998 ft

Show me the last for .
Show Decoded

2018-07-22 00:56 METAR KHYS 220556Z AUTO 10007KT 10SM CLR 25/19 A3004 RMK AO2 RAE00 SLP154 P0000
                 60000 T02500194 10317 20250 403280194 53007 =
2018-07-21 23:56 METAR KHYS 220456Z AUTO 07012KT 10SM -RA SCT110 25/20 A3003 RMK AO2 LTG DSNT N
                 RAB46 SLP150 P0000 T02500200 =
2018-07-21 22:56 METAR KHYS 220356Z AUTO 12012KT 10SM SCT095 SCT110 27/19 A3001 RMK AO2 LTG DSNT
                 E SLP142 T02670194 =
2018-07-21 21:56 METAR KHYS 220256Z AUTO 12009KT 10SM CLR 27/19 A3002 RMK AO2 SLP148 T02720194
                 53005 =
2018-07-21 20:56 METAR KHYS 220156Z AUTO 12010KT 10SM SCT095 SCT110 28/19 A3000 RMK AO2 SLP140
                 T02780194 =
2018-07-21 19:56 METAR KHYS 220056Z AUTO 12010KT 8SM CLR 29/19 A2999 RMK AO2 SLP140 T02940189 =
2018-07-21 18:56 METAR KHYS 212356Z AUTO 12009KT 10SM CLR 31/18 A3001 RMK AO2 SLP144 T03110183
                 10328 20300 58010 =
2018-07-21 17:56 METAR KHYS 212256Z AUTO 11008G15KT 10SM CLR 32/18 A3003 RMK AO2 SLP151 T03170183
                 =
2018-07-21 16:56 METAR KHYS 212156Z AUTO 13011KT 10SM CLR 32/18 A3002 RMK AO2 SLP149 T03220183 =
2018-07-21 15:56 METAR KHYS 212056Z AUTO 12013G16KT 10SM CLR 32/18 A3004 RMK AO2 SLP153 T03220183
                 58013 =
2018-07-21 14:56 METAR KHYS 211956Z AUTO 13010KT 10SM CLR 32/18 A3005 RMK AO2 SLP158 T03170183 =
2018-07-21 13:56 METAR KHYS 211856Z AUTO 11012G16KT 10SM CLR 31/18 A3006 RMK AO2 SLP163 T03060178
                 =
2018-07-21 12:56 METAR KHYS 211756Z AUTO 11010KT 10SM CLR 30/19 A3008 RMK AO2 SLP167 T03000189
                 10300 20200 58006 TSNO =
2018-07-21 11:56 METAR KHYS 211656Z AUTO 12009KT 10SM CLR 29/19 A3009 RMK AO2 SLP171 T02940194 =
2018-07-21 10:56 METAR KHYS 211556Z AUTO 12011KT 10SM CLR 28/18 A3009 RMK AO2 SLP171 T02830178 =
2018-07-21 09:56 METAR KHYS 211456Z AUTO 11010KT 10SM CLR 26/18 A3010 RMK AO2 SLP173 T02610183
                 51015 =
2018-07-21 08:56 METAR KHYS 211356Z AUTO 12008KT 10SM CLR 23/19 A3010 RMK AO2 SLP174 T02330189 =
2018-07-21 07:56 METAR KHYS 211256Z AUTO 09005KT 10SM CLR 21/19 A3007 RMK AO2 SLP165 T02110194 =
2018-07-21 06:56 METAR KHYS 211156Z AUTO 07005KT 10SM CLR 20/18 A3005 RMK AO2 SLP158 T02000183
                 10228 20194 51019 =
2018-07-21 05:56 METAR KHYS 211056Z AUTO 05007KT 10SM CLR 20/18 A3004 RMK AO2 SLP155 T02000183 =
2018-07-21 04:56 METAR KHYS 210956Z AUTO 05007KT 10SM CLR 21/18 A3002 RMK AO2 SLP148 T02060178 =
2018-07-21 03:56 METAR KHYS 210856Z AUTO 08007KT 10SM CLR 22/18 A2999 RMK AO2 SLP136 T02170178
                 56016 =
2018-07-21 02:56 METAR KHYS 210756Z AUTO 09009KT 10SM CLR 21/17 A2999 RMK AO2 SLP136 T02110167 =
2018-07-21 01:56 METAR KHYS 210656Z AUTO 08009KT 10SM CLR 21/18 A3003 RMK AO2 SLP149 T02110183 =

Support USWX by starting your Amazon purchase here.